Aiwamaru — JD2602 — position and weather

sailwx.info

Track history (hours):
 
Tides and Currents Weather Stations Pressure Air Temp Water Temp Dewpoint Dewpoint Depression Visibility Wind Speed Wind Dir Waves Ship Positions

Aiwamaru

Last reported at 2015-May-03 16:20 UTC. Time now 2015-May-04 18:06 UTC.
Position N 34°50' E 139°22'.

Length 64 m; draft 4.8 m.

Type: Tanker. MMSI: 431000508.

Date/timePositionNaut miles runAvg speedWind from/ knotsBaromVisibWave heightAir tempDewpointWater temp
2015-May-03 16:20N 34°50' E 139°22'1010.3
2015-May-03 15:24N 34°51' E 139°34'1110.6
2015-May-03 14:24N 34°52' E 139°47'910.6
2015-May-03 13:33N 34°54' E 139°57'12 9.9
2015-May-03 12:19N 35°00' E 140°10'63 5.8
2015-May-03 01:33N 35°57' E 140°42'0 0.0
2015-May-02 23:32N 35°57' E 140°42'0 0.1
2015-May-02 22:33N 35°57' E 140°42'1 0.7
2015-May-02 21:33N 35°58' E 140°43'1211.4
2015-May-02 20:29N 35°48' E 140°52'1010.3
2015-May-02 19:33N 35°39' E 140°53'1111.3
2015-May-02 18:34N 35°30' E 140°45'1312.6
2015-May-02 17:31N 35°20' E 140°35'1312.7
2015-May-02 16:30N 35°09' E 140°25'1312.5
2015-May-02 15:25N 35°01' E 140°12'1412.6
2015-May-02 14:21N 34°53' E 139°58'1312.2
2015-May-02 13:15N 34°51' E 139°42'  
2015-Apr-29 05:32N 34°07' E 134°60'2411.9
2015-Apr-29 03:30N 34°31' E 135°03'9 9.9
2015-Apr-29 02:33N 34°37' E 134°54'6 0.3
2015-Apr-28 10:32N 34°41' E 134°49'1212.2
2015-Apr-28 09:32N 34°37' E 135°03'1212.3
2015-Apr-28 08:34N 34°38' E 135°17'8 6.4
2015-Apr-28 07:17N 34°40' E 135°27'0 0.0
2015-Apr-28 06:25N 34°40' E 135°27'0 0.0
2015-Apr-28 05:32N 34°40' E 135°27'0 0.0
2015-Apr-28 04:30N 34°40' E 135°27'0 0.0
2015-Apr-28 03:33N 34°40' E 135°27'0 0.0
2015-Apr-28 02:33N 34°40' E 135°27'0 0.2
2015-Apr-28 01:33N 34°40' E 135°27'3 3.2
2015-Apr-28 00:33N 34°40' E 135°23'1 0.7
2015-Apr-27 23:33N 34°40' E 135°22'0 0.0
2015-Apr-27 22:33N 34°40' E 135°22'0 0.0
2015-Apr-27 21:33N 34°40' E 135°22'0 0.5
2015-Apr-27 20:33N 34°39' E 135°22'1111.1
2015-Apr-27 19:33N 34°30' E 135°13'2410.9
2015-Apr-27 17:20N 34°09' E 135°00'262 9.4
2015-Apr-26 13:20N 35°01' E 140°12'20 9.9
2015-Apr-26 11:17N 35°16' E 140°29'39 6.7
2015-Apr-26 05:32N 35°53' E 140°41'0 0.4
2015-Apr-26 04:18N 35°53' E 140°41'3 1.4
2015-Apr-26 02:16N 35°56' E 140°42'56 9.8
2015-Apr-25 20:33N 35°04' E 140°18'1212.1
2015-Apr-25 19:33N 34°57' E 140°05'1311.5
2015-Apr-25 18:28N 34°52' E 139°51'  
Track history (hours):
 
Tides and Currents Weather Stations Pressure Air Temp Water Temp Dewpoint Dewpoint Depression Visibility Wind Speed Wind Dir Waves Ship Positions

Aiwamaru

Last reported at 2015-May-03 16:20 UTC. Time now 2015-May-04 18:06 UTC.
Position N 34°50' E 139°22'.

Length 64 m; draft 4.8 m.

Type: Tanker. MMSI: 431000508.

Date/timePositionNaut miles runAvg speedWind from/ knotsBaromVisibWave heightAir tempDewpointWater temp
2015-May-03 16:20N 34°50' E 139°22'1010.3
2015-May-03 15:24N 34°51' E 139°34'1110.6
2015-May-03 14:24N 34°52' E 139°47'910.6
2015-May-03 13:33N 34°54' E 139°57'12 9.9
2015-May-03 12:19N 35°00' E 140°10'63 5.8
2015-May-03 01:33N 35°57' E 140°42'0 0.0
2015-May-02 23:32N 35°57' E 140°42'0 0.1
2015-May-02 22:33N 35°57' E 140°42'1 0.7
2015-May-02 21:33N 35°58' E 140°43'1211.4
2015-May-02 20:29N 35°48' E 140°52'1010.3
2015-May-02 19:33N 35°39' E 140°53'1111.3
2015-May-02 18:34N 35°30' E 140°45'1312.6
2015-May-02 17:31N 35°20' E 140°35'1312.7
2015-May-02 16:30N 35°09' E 140°25'1312.5
2015-May-02 15:25N 35°01' E 140°12'1412.6
2015-May-02 14:21N 34°53' E 139°58'1312.2
2015-May-02 13:15N 34°51' E 139°42'  
2015-Apr-29 05:32N 34°07' E 134°60'2411.9
2015-Apr-29 03:30N 34°31' E 135°03'9 9.9
2015-Apr-29 02:33N 34°37' E 134°54'6 0.3
2015-Apr-28 10:32N 34°41' E 134°49'1212.2
2015-Apr-28 09:32N 34°37' E 135°03'1212.3
2015-Apr-28 08:34N 34°38' E 135°17'8 6.4
2015-Apr-28 07:17N 34°40' E 135°27'0 0.0
2015-Apr-28 06:25N 34°40' E 135°27'0 0.0
2015-Apr-28 05:32N 34°40' E 135°27'0 0.0
2015-Apr-28 04:30N 34°40' E 135°27'0 0.0
2015-Apr-28 03:33N 34°40' E 135°27'0 0.0
2015-Apr-28 02:33N 34°40' E 135°27'0 0.2
2015-Apr-28 01:33N 34°40' E 135°27'3 3.2
2015-Apr-28 00:33N 34°40' E 135°23'1 0.7
2015-Apr-27 23:33N 34°40' E 135°22'0 0.0
2015-Apr-27 22:33N 34°40' E 135°22'0 0.0
2015-Apr-27 21:33N 34°40' E 135°22'0 0.5
2015-Apr-27 20:33N 34°39' E 135°22'1111.1
2015-Apr-27 19:33N 34°30' E 135°13'2410.9
2015-Apr-27 17:20N 34°09' E 135°00'262 9.4
2015-Apr-26 13:20N 35°01' E 140°12'20 9.9
2015-Apr-26 11:17N 35°16' E 140°29'39 6.7
2015-Apr-26 05:32N 35°53' E 140°41'0 0.4
2015-Apr-26 04:18N 35°53' E 140°41'3 1.4
2015-Apr-26 02:16N 35°56' E 140°42'56 9.8
2015-Apr-25 20:33N 35°04' E 140°18'1212.1
2015-Apr-25 19:33N 34°57' E 140°05'1311.5
2015-Apr-25 18:28N 34°52' E 139°51'  

Dump ship's entire track history